createdAt,value
2023-04-18T00:00:07.695Z,1012.02
2023-04-18T00:00:34.245Z,1012.02
2023-04-18T00:00:56.731Z,1012.02
2023-04-18T00:01:27.537Z,1012.02
2023-04-18T00:02:00.527Z,1012.02
2023-04-18T00:02:31.754Z,1012.02
2023-04-18T00:03:05.446Z,1011.92
2023-04-18T00:03:34.783Z,1012.22
2023-04-18T00:03:52.049Z,1012.22
2023-04-18T00:04:23.616Z,1012.22
2023-04-18T00:04:40.840Z,1012.02
2023-04-18T00:05:12.517Z,1012.02
2023-04-18T00:05:34.227Z,1011.82
2023-04-18T00:05:59.506Z,1011.82
2023-04-18T00:06:31.488Z,1011.82
2023-04-18T00:07:06.020Z,1012.12
2023-04-18T00:07:34.223Z,1012.02
2023-04-18T00:07:52.047Z,1012.02
2023-04-18T00:08:23.497Z,1012.02
2023-04-18T00:08:41.724Z,1012.02
2023-04-18T00:09:12.664Z,1012.02
2023-04-18T00:09:34.286Z,1011.92
2023-04-18T00:09:59.457Z,1011.92
2023-04-18T00:10:31.474Z,1011.92
2023-04-18T00:11:03.475Z,1011.92
2023-04-18T00:11:34.303Z,1011.92
2023-04-18T00:11:51.622Z,1011.92
2023-04-18T00:12:24.510Z,1011.92
2023-04-18T00:12:41.992Z,1011.72
2023-04-18T00:13:11.473Z,1011.72
2023-04-18T00:13:34.324Z,1011.92
2023-04-18T00:13:59.490Z,1011.92
2023-04-18T00:14:32.589Z,1011.92
2023-04-18T00:15:03.659Z,1012.02
2023-04-18T00:15:34.997Z,1012.02
2023-04-18T00:15:51.614Z,1012.02
2023-04-18T00:16:23.637Z,1012.02
2023-04-18T00:16:41.634Z,1012.02
2023-04-18T00:17:11.546Z,1012.02
2023-04-18T00:17:34.291Z,1012.02
2023-04-18T00:17:59.519Z,1012.02
2023-04-18T00:18:31.452Z,1012.02
2023-04-18T00:19:04.522Z,1011.92
2023-04-18T00:19:34.941Z,1012.12
2023-04-18T00:19:51.700Z,1012.12
2023-04-18T00:20:25.148Z,1012.12
2023-04-18T00:20:41.734Z,1011.92
2023-04-18T00:21:15.409Z,1011.92
2023-04-18T00:21:34.256Z,1011.72
2023-04-18T00:21:59.438Z,1011.72
2023-04-18T00:22:31.462Z,1011.72
2023-04-18T00:23:03.475Z,1011.92
2023-04-18T00:23:35.067Z,1012.02
2023-04-18T00:23:51.689Z,1012.02
2023-04-18T00:24:25.434Z,1012.02
2023-04-18T00:24:41.768Z,1011.92
2023-04-18T00:25:11.495Z,1011.92
2023-04-18T00:25:35.168Z,1012.02
2023-04-18T00:25:59.468Z,1012.02
2023-04-18T00:26:33.780Z,1012.02
2023-04-18T00:27:11.919Z,1012.02
2023-04-18T00:27:19.548Z,1011.92
2023-04-18T00:27:51.917Z,1011.72
2023-04-18T00:28:23.531Z,1011.72
2023-04-18T00:28:42.732Z,1011.82
2023-04-18T00:29:11.470Z,1011.82
2023-04-18T00:29:34.781Z,1012.02
2023-04-18T00:29:59.462Z,1012.02
2023-04-18T00:30:31.557Z,1012.02
2023-04-18T00:31:04.381Z,1011.82
2023-04-18T00:31:34.276Z,1012.02
2023-04-18T00:31:51.605Z,1012.02
2023-04-18T00:32:23.460Z,1012.02
2023-04-18T00:32:42.691Z,1011.82
2023-04-18T00:33:13.421Z,1011.82
2023-04-18T00:33:34.334Z,1011.92
2023-04-18T00:33:59.468Z,1011.92
2023-04-18T00:34:31.449Z,1011.92
2023-04-18T00:35:03.493Z,1011.82
2023-04-18T00:35:34.341Z,1011.82
2023-04-18T00:35:51.531Z,1011.82
2023-04-18T00:36:24.361Z,1011.82
2023-04-18T00:36:41.589Z,1011.82
2023-04-18T00:37:11.498Z,1011.82
2023-04-18T00:37:34.733Z,1011.82
2023-04-18T00:37:59.451Z,1011.82
2023-04-18T00:38:32.370Z,1011.82
2023-04-18T00:39:03.487Z,1011.82
2023-04-18T00:39:35.076Z,1012.02
2023-04-18T00:40:07.450Z,1012.02
2023-04-18T00:40:34.721Z,1011.92
2023-04-18T00:40:55.511Z,1011.92
2023-04-18T00:41:27.513Z,1011.92
2023-04-18T00:42:00.363Z,1011.82
2023-04-18T00:42:31.590Z,1011.82
2023-04-18T00:43:04.452Z,1011.72
2023-04-18T00:43:34.299Z,1011.72
2023-04-18T00:43:51.565Z,1011.72
2023-04-18T00:44:23.432Z,1011.72
2023-04-18T00:44:40.741Z,1011.82
2023-04-18T00:45:12.376Z,1011.82
2023-04-18T00:45:34.318Z,1011.72
2023-04-18T00:45:59.503Z,1011.72
2023-04-18T00:46:31.494Z,1011.72
2023-04-18T00:47:03.461Z,1011.92
2023-04-18T00:47:34.442Z,1011.72
2023-04-18T00:47:51.577Z,1011.72
2023-04-18T00:48:24.337Z,1011.72
2023-04-18T00:48:42.248Z,1012.02
2023-04-18T00:49:11.491Z,1012.02
2023-04-18T00:49:34.602Z,1012.02
2023-04-18T00:49:59.471Z,1012.02
2023-04-18T00:50:32.413Z,1012.02
2023-04-18T00:51:04.918Z,1011.72
2023-04-18T00:51:35.001Z,1011.72
2023-04-18T00:51:51.555Z,1011.72
2023-04-18T00:52:23.450Z,1011.72
2023-04-18T00:52:41.558Z,1011.72
2023-04-18T00:53:11.594Z,1011.72
2023-04-18T00:53:34.419Z,1011.82
2023-04-18T00:53:59.487Z,1011.82
2023-04-18T00:54:31.491Z,1011.82
2023-04-18T00:55:04.483Z,1011.82
2023-04-18T00:55:34.379Z,1011.72
2023-04-18T00:55:51.518Z,1011.72
2023-04-18T00:56:24.426Z,1011.72
2023-04-18T00:56:41.681Z,1011.92
2023-04-18T00:57:12.751Z,1011.92
2023-04-18T00:57:34.412Z,1011.82
2023-04-18T00:58:00.370Z,1011.82
2023-04-18T00:58:32.355Z,1011.82
2023-04-18T00:59:03.386Z,1011.82
2023-04-18T00:59:35.051Z,1011.82
2023-04-18T00:59:52.640Z,1011.82
2023-04-18T01:00:23.430Z,1011.82
2023-04-18T01:00:42.074Z,1011.82
2023-04-18T01:01:11.483Z,1011.82
2023-04-18T01:01:34.401Z,1011.92
2023-04-18T01:01:59.501Z,1011.92
2023-04-18T01:02:31.659Z,1011.92
2023-04-18T01:03:07.437Z,1011.92
2023-04-18T01:03:34.632Z,1011.82
2023-04-18T01:03:51.744Z,1011.82
2023-04-18T01:04:23.532Z,1011.82
2023-04-18T01:04:40.764Z,1011.92
2023-04-18T01:05:13.568Z,1011.92
2023-04-18T01:05:34.860Z,1011.61
2023-04-18T01:05:59.452Z,1011.61
2023-04-18T01:06:31.487Z,1011.61
2023-04-18T01:07:03.468Z,1012.02
2023-04-18T01:07:34.437Z,1011.82
2023-04-18T01:08:07.531Z,1011.82
2023-04-18T01:08:34.418Z,1011.82
2023-04-18T01:08:55.440Z,1011.82
2023-04-18T01:09:28.612Z,1011.82
2023-04-18T01:09:59.659Z,1011.92
2023-04-18T01:10:32.279Z,1011.92
2023-04-18T01:11:03.409Z,1011.61
2023-04-18T01:11:34.983Z,1011.92
2023-04-18T01:11:51.528Z,1011.92
2023-04-18T01:12:23.445Z,1011.92
2023-04-18T01:12:42.303Z,1011.92
2023-04-18T01:13:11.489Z,1011.92
2023-04-18T01:13:34.469Z,1011.72
2023-04-18T01:13:59.430Z,1011.72
2023-04-18T01:14:31.484Z,1011.72
2023-04-18T01:15:04.475Z,1011.61
2023-04-18T01:15:34.720Z,1011.72
2023-04-18T01:15:51.715Z,1011.72
2023-04-18T01:16:23.439Z,1011.72
2023-04-18T01:16:40.664Z,1011.51
2023-04-18T01:17:13.181Z,1011.51
2023-04-18T01:17:35.763Z,1011.61
2023-04-18T01:17:59.546Z,1011.61
2023-04-18T01:18:31.434Z,1011.61
2023-04-18T01:19:03.601Z,1011.51
2023-04-18T01:19:34.446Z,1011.61
2023-04-18T01:19:51.542Z,1011.61
2023-04-18T01:20:25.476Z,1011.61
2023-04-18T01:20:42.007Z,1011.61
2023-04-18T01:21:11.533Z,1011.61
2023-04-18T01:21:34.512Z,1011.51
2023-04-18T01:21:59.471Z,1011.51
2023-04-18T01:22:32.302Z,1011.51
2023-04-18T01:23:03.461Z,1011.82
2023-04-18T01:23:36.928Z,1011.51
2023-04-18T01:24:07.473Z,1011.51
2023-04-18T01:24:34.420Z,1011.72
2023-04-18T01:24:55.461Z,1011.72
2023-04-18T01:25:27.457Z,1011.72
2023-04-18T01:26:01.480Z,1011.72
2023-04-18T01:26:31.424Z,1011.72
2023-04-18T01:27:04.388Z,1011.72
2023-04-18T01:27:34.397Z,1011.51
2023-04-18T01:27:51.700Z,1011.51
2023-04-18T01:28:24.330Z,1011.51
2023-04-18T01:28:41.709Z,1011.51
2023-04-18T01:29:12.415Z,1011.51
2023-04-18T01:29:34.519Z,1011.41
2023-04-18T01:29:59.406Z,1011.41
2023-04-18T01:30:33.811Z,1011.41
2023-04-18T01:31:03.511Z,1011.61
2023-04-18T01:31:34.408Z,1011.51
2023-04-18T01:31:51.508Z,1011.51
2023-04-18T01:32:25.938Z,1011.51
2023-04-18T01:32:55.546Z,1011.51
2023-04-18T01:33:28.302Z,1011.51
2023-04-18T01:33:59.425Z,1011.72
2023-04-18T01:34:32.282Z,1011.72
2023-04-18T01:35:03.439Z,1011.61
2023-04-18T01:35:35.507Z,1011.61
2023-04-18T01:36:07.485Z,1011.61
2023-04-18T01:36:34.333Z,1011.72
2023-04-18T01:36:56.660Z,1011.72
2023-04-18T01:37:28.122Z,1011.72
2023-04-18T01:38:00.523Z,1011.51
2023-04-18T01:38:31.373Z,1011.51
2023-04-18T01:39:05.545Z,1011.61
2023-04-18T01:39:34.601Z,1011.31
2023-04-18T01:40:08.364Z,1011.31
2023-04-18T01:40:34.496Z,1011.51
2023-04-18T01:40:55.525Z,1011.51
2023-04-18T01:41:27.442Z,1011.51
2023-04-18T01:41:59.362Z,1011.51
2023-04-18T01:42:31.434Z,1011.51
2023-04-18T01:43:03.485Z,1011.61
2023-04-18T01:43:34.319Z,1011.51
2023-04-18T01:43:51.484Z,1011.51
2023-04-18T01:44:24.324Z,1011.51
2023-04-18T01:44:41.680Z,1011.51
2023-04-18T01:45:11.444Z,1011.51
2023-04-18T01:45:34.327Z,1011.41
2023-04-18T01:45:59.401Z,1011.41
2023-04-18T01:46:32.316Z,1011.41
2023-04-18T01:47:03.452Z,1011.51
2023-04-18T01:47:36.216Z,1011.41
2023-04-18T01:48:07.377Z,1011.41
2023-04-18T01:48:35.422Z,1011.24
2023-04-18T01:48:55.545Z,1011.24
2023-04-18T01:49:27.454Z,1011.24
2023-04-18T01:50:02.303Z,1011.51
2023-04-18T01:50:31.413Z,1011.51
2023-04-18T01:51:04.451Z,1011.41
2023-04-18T01:51:34.571Z,1011.31
2023-04-18T01:51:51.522Z,1011.31
2023-04-18T01:52:24.079Z,1011.31
2023-04-18T01:52:40.671Z,1011.31
2023-04-18T01:53:15.580Z,1011.31
2023-04-18T01:53:34.382Z,1011.41
2023-04-18T01:53:59.534Z,1011.41
2023-04-18T01:54:31.385Z,1011.41
2023-04-18T01:55:03.424Z,1011.41
2023-04-18T01:55:34.727Z,1011.24
2023-04-18T01:55:51.342Z,1011.24
2023-04-18T01:56:24.499Z,1011.24
2023-04-18T01:56:41.520Z,1011.31
2023-04-18T01:57:11.393Z,1011.31
2023-04-18T01:57:34.369Z,1011.51
2023-04-18T01:57:59.559Z,1011.51
2023-04-18T01:58:32.385Z,1011.51
2023-04-18T01:59:04.294Z,1011.51
2023-04-18T01:59:35.262Z,1011.41
2023-04-18T02:00:07.763Z,1011.41
2023-04-18T02:00:34.670Z,1011.31
2023-04-18T02:00:55.399Z,1011.31
2023-04-18T02:01:27.442Z,1011.31
2023-04-18T02:02:00.366Z,1011.31
2023-04-18T02:02:31.494Z,1011.31
2023-04-18T02:03:05.101Z,1011.41
2023-04-18T02:03:35.130Z,1011.41
2023-04-18T02:03:51.732Z,1011.41
2023-04-18T02:04:23.464Z,1011.41
2023-04-18T02:04:40.617Z,1011.41
2023-04-18T02:05:13.254Z,1011.41
2023-04-18T02:05:35.495Z,1011.41
2023-04-18T02:05:59.406Z,1011.41
2023-04-18T02:06:32.314Z,1011.41
2023-04-18T02:07:04.328Z,1011.51
2023-04-18T02:07:35.396Z,1011.51
2023-04-18T02:08:08.404Z,1011.51
2023-04-18T02:08:34.441Z,1011.61
2023-04-18T02:08:55.507Z,1011.61
2023-04-18T02:09:27.365Z,1011.61
2023-04-18T02:09:59.441Z,1011.41
2023-04-18T02:10:31.337Z,1011.41
2023-04-18T02:11:04.642Z,1011.41
2023-04-18T02:11:34.382Z,1011.51
2023-04-18T02:11:51.456Z,1011.51
2023-04-18T02:12:24.406Z,1011.51
2023-04-18T02:12:41.614Z,1011.24
2023-04-18T02:13:12.379Z,1011.24
2023-04-18T02:13:34.637Z,1011.51
2023-04-18T02:13:59.522Z,1011.51
2023-04-18T02:14:32.452Z,1011.51
2023-04-18T02:15:03.364Z,1011.41
2023-04-18T02:15:36.426Z,1011.51
2023-04-18T02:16:07.403Z,1011.51
2023-04-18T02:16:34.840Z,1011.51
2023-04-18T02:16:58.804Z,1011.51
2023-04-18T02:17:27.396Z,1011.51
2023-04-18T02:18:00.369Z,1011.41
2023-04-18T02:18:32.826Z,1011.41
2023-04-18T02:19:04.445Z,1011.41
2023-04-18T02:19:34.659Z,1011.41
2023-04-18T02:19:51.137Z,1011.41
2023-04-18T02:20:23.412Z,1011.41
2023-04-18T02:20:40.724Z,1011.51
2023-04-18T02:21:12.308Z,1011.51
2023-04-18T02:21:34.366Z,1011.51
2023-04-18T02:21:59.600Z,1011.51
2023-04-18T02:22:31.520Z,1011.51
2023-04-18T02:23:03.450Z,1011.51
2023-04-18T02:23:34.656Z,1011.61
2023-04-18T02:24:07.381Z,1011.61
2023-04-18T02:24:34.348Z,1011.61
2023-04-18T02:24:56.340Z,1011.61
2023-04-18T02:25:28.310Z,1011.61
2023-04-18T02:25:59.458Z,1011.41
2023-04-18T02:26:32.717Z,1011.41
2023-04-18T02:27:03.365Z,1011.51
2023-04-18T02:27:35.097Z,1011.41
2023-04-18T02:28:07.528Z,1011.41
2023-04-18T02:28:34.544Z,1011.51
2023-04-18T02:28:55.489Z,1011.51
2023-04-18T02:29:27.380Z,1011.51
2023-04-18T02:30:00.970Z,1011.31
2023-04-18T02:30:31.493Z,1011.31
2023-04-18T02:31:04.297Z,1011.41
2023-04-18T02:31:34.679Z,1011.61
2023-04-18T02:31:51.731Z,1011.61
2023-04-18T02:32:23.461Z,1011.61
2023-04-18T02:32:40.657Z,1011.61
2023-04-18T02:33:12.262Z,1011.61
2023-04-18T02:33:35.813Z,1011.51
2023-04-18T02:34:01.338Z,1011.51
2023-04-18T02:34:31.420Z,1011.51
2023-04-18T02:35:04.267Z,1011.72
2023-04-18T02:35:34.638Z,1011.51
2023-04-18T02:35:51.692Z,1011.51
2023-04-18T02:36:24.250Z,1011.51
2023-04-18T02:36:41.602Z,1011.51
2023-04-18T02:37:12.341Z,1011.51
2023-04-18T02:37:34.351Z,1011.51
2023-04-18T02:37:59.538Z,1011.51
2023-04-18T02:38:32.479Z,1011.51
2023-04-18T02:39:03.485Z,1011.31
2023-04-18T02:39:36.275Z,1011.61
2023-04-18T02:40:07.396Z,1011.61
2023-04-18T02:40:34.831Z,1011.72
2023-04-18T02:40:56.242Z,1011.72
2023-04-18T02:41:27.318Z,1011.72
2023-04-18T02:42:01.315Z,1011.72
2023-04-18T02:42:31.552Z,1011.72
2023-04-18T02:43:04.282Z,1011.51
2023-04-18T02:43:34.672Z,1011.61
2023-04-18T02:44:08.430Z,1011.61
2023-04-18T02:44:34.490Z,1011.61
2023-04-18T02:44:55.400Z,1011.61
2023-04-18T02:45:27.383Z,1011.61
2023-04-18T02:45:59.476Z,1011.51
2023-04-18T02:46:32.476Z,1011.51
2023-04-18T02:47:03.500Z,1011.41
2023-04-18T02:47:47.010Z,1011.61
2023-04-18T02:48:07.413Z,1011.61
2023-04-18T02:48:34.402Z,1011.51
2023-04-18T02:48:55.437Z,1011.51
2023-04-18T02:49:28.455Z,1011.51
2023-04-18T02:49:59.357Z,1011.41
2023-04-18T02:50:33.285Z,1011.41
2023-04-18T02:51:03.382Z,1011.31
2023-04-18T02:51:35.223Z,1011.41
2023-04-18T02:52:07.369Z,1011.41
2023-04-18T02:52:34.380Z,1011.51
2023-04-18T02:52:55.400Z,1011.51
2023-04-18T02:53:27.764Z,1011.51
2023-04-18T02:54:01.289Z,1011.61
2023-04-18T02:54:31.546Z,1011.61
2023-04-18T02:55:09.708Z,1011.61
2023-04-18T02:55:20.423Z,1011.41
2023-04-18T02:55:51.669Z,1011.41
2023-04-18T02:56:25.250Z,1011.41
2023-04-18T02:56:57.429Z,1011.51
2023-04-18T02:57:28.823Z,1011.51
2023-04-18T02:57:59.444Z,1011.51
2023-04-18T02:58:33.462Z,1011.51
2023-04-18T02:59:03.366Z,1011.51
2023-04-18T02:59:35.340Z,1011.51
2023-04-18T03:00:07.500Z,1011.51
2023-04-18T03:00:34.600Z,1011.41
2023-04-18T03:00:55.493Z,1011.41
2023-04-18T03:01:27.405Z,1011.41
2023-04-18T03:02:01.316Z,1011.41
2023-04-18T03:02:31.438Z,1011.41
2023-04-18T03:03:04.548Z,1011.51
2023-04-18T03:03:35.138Z,1011.61
2023-04-18T03:03:51.500Z,1011.61
2023-04-18T03:04:23.357Z,1011.61
2023-04-18T03:04:40.610Z,1011.51
2023-04-18T03:05:12.450Z,1011.51
2023-04-18T03:05:34.716Z,1011.51
2023-04-18T03:05:59.517Z,1011.51
2023-04-18T03:06:31.475Z,1011.51
2023-04-18T03:07:05.104Z,1011.41
2023-04-18T03:07:35.030Z,1011.51
2023-04-18T03:08:08.254Z,1011.51
2023-04-18T03:08:34.450Z,1011.61
2023-04-18T03:08:55.779Z,1011.61
2023-04-18T03:09:28.374Z,1011.61
2023-04-18T03:09:59.377Z,1011.41
2023-04-18T03:10:31.265Z,1011.41
2023-04-18T03:11:03.406Z,1011.51
2023-04-18T03:11:34.523Z,1011.51
2023-04-18T03:11:51.523Z,1011.51
2023-04-18T03:12:26.242Z,1011.51
2023-04-18T03:12:55.411Z,1011.41
2023-04-18T03:13:29.323Z,1011.41
2023-04-18T03:14:00.270Z,1011.41
2023-04-18T03:14:32.301Z,1011.41
2023-04-18T03:15:03.408Z,1011.31
2023-04-18T03:15:34.977Z,1011.41
2023-04-18T03:16:07.448Z,1011.41
2023-04-18T03:16:34.819Z,1011.51
2023-04-18T03:16:56.324Z,1011.51
2023-04-18T03:17:28.186Z,1011.51
2023-04-18T03:18:00.351Z,1011.41
2023-04-18T03:18:31.536Z,1011.41
2023-04-18T03:19:04.444Z,1011.41
2023-04-18T03:19:35.064Z,1011.51
2023-04-18T03:20:06.855Z,1011.51
2023-04-18T03:20:24.222Z,1011.51
2023-04-18T03:20:41.327Z,1011.31
2023-04-18T03:21:11.305Z,1011.31
2023-04-18T03:21:34.347Z,1011.51
2023-04-18T03:21:59.344Z,1011.51
2023-04-18T03:22:32.356Z,1011.51
2023-04-18T03:23:04.399Z,1011.61
2023-04-18T03:23:35.100Z,1011.51
2023-04-18T03:24:07.299Z,1011.51
2023-04-18T03:24:34.735Z,1011.61
2023-04-18T03:24:55.564Z,1011.61
2023-04-18T03:25:27.329Z,1011.61
2023-04-18T03:26:00.444Z,1011.61
2023-04-18T03:26:31.331Z,1011.61
2023-04-18T03:27:04.343Z,1011.41
2023-04-18T03:27:34.493Z,1011.31
2023-04-18T03:27:51.428Z,1011.31
2023-04-18T03:28:23.471Z,1011.31
2023-04-18T03:28:40.789Z,1011.61
2023-04-18T03:29:14.250Z,1011.61
2023-04-18T03:29:34.463Z,1011.51
2023-04-18T03:29:59.395Z,1011.51
2023-04-18T03:30:31.337Z,1011.51
2023-04-18T03:31:03.416Z,1011.41
2023-04-18T03:31:34.468Z,1011.51
2023-04-18T03:31:51.352Z,1011.51
2023-04-18T03:32:24.418Z,1011.51
2023-04-18T03:32:41.511Z,1011.41
2023-04-18T03:33:11.366Z,1011.41
2023-04-18T03:33:34.468Z,1011.51
2023-04-18T03:33:59.311Z,1011.51
2023-04-18T03:34:32.624Z,1011.51
2023-04-18T03:35:03.409Z,1011.51
2023-04-18T03:35:35.135Z,1011.51
2023-04-18T03:36:07.386Z,1011.51
2023-04-18T03:36:34.792Z,1011.41
2023-04-18T03:36:55.385Z,1011.41
2023-04-18T03:37:27.423Z,1011.41
2023-04-18T03:38:00.273Z,1011.41
2023-04-18T03:38:31.448Z,1011.41
2023-04-18T03:39:04.201Z,1011.51
2023-04-18T03:39:34.321Z,1011.61
2023-04-18T03:39:51.516Z,1011.61
2023-04-18T03:40:23.385Z,1011.61
2023-04-18T03:40:40.538Z,1011.51
2023-04-18T03:41:12.220Z,1011.51
2023-04-18T03:41:34.385Z,1011.24
2023-04-18T03:41:59.392Z,1011.24
2023-04-18T03:42:31.334Z,1011.24
2023-04-18T03:43:03.390Z,1011.41
2023-04-18T03:43:34.588Z,1011.51
2023-04-18T03:43:51.480Z,1011.51
2023-04-18T03:44:24.332Z,1011.51
2023-04-18T03:44:41.525Z,1011.51
2023-04-18T03:45:11.330Z,1011.51
2023-04-18T03:45:34.273Z,1011.41
2023-04-18T03:45:59.471Z,1011.41
2023-04-18T03:46:33.221Z,1011.41
2023-04-18T03:47:03.534Z,1011.24
2023-04-18T03:47:34.994Z,1011.51
2023-04-18T03:48:07.301Z,1011.51
2023-04-18T03:48:34.307Z,1011.51
2023-04-18T03:48:55.404Z,1011.51
2023-04-18T03:49:27.392Z,1011.51
2023-04-18T03:50:00.289Z,1011.51
2023-04-18T03:50:31.407Z,1011.51
2023-04-18T03:51:04.193Z,1011.41
2023-04-18T03:51:35.331Z,1011.61
2023-04-18T03:51:51.401Z,1011.61
2023-04-18T03:52:23.367Z,1011.61
2023-04-18T03:52:40.537Z,1011.31
2023-04-18T03:53:12.363Z,1011.31
2023-04-18T03:53:34.299Z,1011.41
2023-04-18T03:53:59.281Z,1011.41
2023-04-18T03:54:31.304Z,1011.41
2023-04-18T03:55:03.355Z,1011.41
2023-04-18T03:55:34.301Z,1011.51
2023-04-18T03:55:51.666Z,1011.51
2023-04-18T03:56:24.205Z,1011.51
2023-04-18T03:56:41.438Z,1011.51
2023-04-18T03:57:11.382Z,1011.51
2023-04-18T03:57:34.314Z,1011.31
2023-04-18T03:57:59.351Z,1011.31
2023-04-18T03:58:32.172Z,1011.31
2023-04-18T03:59:03.443Z,1011.41
2023-04-18T03:59:35.181Z,1011.51
2023-04-18T04:00:07.406Z,1011.51
2023-04-18T04:00:34.600Z,1011.61
2023-04-18T04:00:55.352Z,1011.61
2023-04-18T04:01:27.342Z,1011.61
2023-04-18T04:02:00.519Z,1011.41
2023-04-18T04:02:33.082Z,1011.41
2023-04-18T04:03:04.526Z,1011.51
2023-04-18T04:03:34.657Z,1011.51
2023-04-18T04:04:09.676Z,1011.51
2023-04-18T04:04:34.660Z,1011.51
2023-04-18T04:04:55.553Z,1011.51
2023-04-18T04:05:27.596Z,1011.51
2023-04-18T04:05:59.532Z,1011.31
2023-04-18T04:06:31.482Z,1011.31
2023-04-18T04:07:04.517Z,1011.51
2023-04-18T04:07:34.371Z,1011.31
2023-04-18T04:08:08.430Z,1011.31
2023-04-18T04:08:34.565Z,1011.61
2023-04-18T04:08:55.409Z,1011.61
2023-04-18T04:09:27.433Z,1011.61
2023-04-18T04:09:59.440Z,1011.31
2023-04-18T04:10:31.432Z,1011.31
2023-04-18T04:11:03.326Z,1011.41
2023-04-18T04:11:34.352Z,1011.31
2023-04-18T04:11:51.580Z,1011.31
2023-04-18T04:12:24.344Z,1011.31
2023-04-18T04:12:41.455Z,1011.41
2023-04-18T04:13:19.603Z,1011.41
2023-04-18T04:13:28.341Z,1011.41
2023-04-18T04:13:59.426Z,1011.51
2023-04-18T04:14:32.441Z,1011.51
2023-04-18T04:15:03.460Z,1011.41
2023-04-18T04:15:35.034Z,1011.14
2023-04-18T04:16:07.402Z,1011.14
2023-04-18T04:16:34.637Z,1011.24
2023-04-18T04:16:55.431Z,1011.24
2023-04-18T04:17:27.419Z,1011.24
2023-04-18T04:18:00.193Z,1011.31
2023-04-18T04:18:31.396Z,1011.31
2023-04-18T04:19:04.348Z,1011.31
2023-04-18T04:19:34.382Z,1011.51
2023-04-18T04:19:51.420Z,1011.51
2023-04-18T04:20:23.367Z,1011.51
2023-04-18T04:20:40.566Z,1011.31
2023-04-18T04:21:12.259Z,1011.31
2023-04-18T04:21:34.437Z,1011.61
2023-04-18T04:21:59.365Z,1011.61
2023-04-18T04:22:31.345Z,1011.61
2023-04-18T04:23:09.479Z,1011.61
2023-04-18T04:23:20.260Z,1011.41
2023-04-18T04:23:51.323Z,1011.41
2023-04-18T04:24:24.192Z,1011.41
2023-04-18T04:24:41.513Z,1011.61
2023-04-18T04:25:11.581Z,1011.61
2023-04-18T04:25:34.623Z,1011.61
2023-04-18T04:26:00.467Z,1011.61
2023-04-18T04:26:33.309Z,1011.61
2023-04-18T04:27:03.280Z,1011.24
2023-04-18T04:27:35.446Z,1011.41
2023-04-18T04:28:07.279Z,1011.41
2023-04-18T04:28:34.352Z,1011.51
2023-04-18T04:28:55.353Z,1011.51
2023-04-18T04:29:27.470Z,1011.51
2023-04-18T04:30:01.120Z,1011.41
2023-04-18T04:30:31.687Z,1011.41
2023-04-18T04:31:05.240Z,1011.61
2023-04-18T04:31:34.540Z,1011.51
2023-04-18T04:31:51.454Z,1011.51
2023-04-18T04:32:23.390Z,1011.51
2023-04-18T04:32:40.666Z,1011.41
2023-04-18T04:33:12.236Z,1011.41
2023-04-18T04:33:34.382Z,1011.61
2023-04-18T04:33:59.326Z,1011.61
2023-04-18T04:34:31.326Z,1011.61
2023-04-18T04:35:03.376Z,1011.41
2023-04-18T04:35:34.453Z,1011.31
2023-04-18T04:35:51.426Z,1011.31
2023-04-18T04:36:24.288Z,1011.31
2023-04-18T04:36:41.530Z,1011.51
2023-04-18T04:37:11.384Z,1011.51
2023-04-18T04:37:34.871Z,1011.31
2023-04-18T04:37:59.445Z,1011.31
2023-04-18T04:38:32.220Z,1011.31
2023-04-18T04:39:03.455Z,1011.31
2023-04-18T04:39:35.319Z,1011.41
2023-04-18T04:40:07.343Z,1011.41
2023-04-18T04:40:34.427Z,1011.41
2023-04-18T04:40:55.393Z,1011.41
2023-04-18T04:41:34.441Z,1011.51
2023-04-18T04:42:00.277Z,1011.51
2023-04-18T04:42:31.516Z,1011.51
2023-04-18T04:43:04.320Z,1011.51
2023-04-18T04:43:34.625Z,1011.72
2023-04-18T04:43:51.408Z,1011.72
2023-04-18T04:44:23.472Z,1011.72
2023-04-18T04:44:40.635Z,1011.51
2023-04-18T04:45:12.304Z,1011.51
2023-04-18T04:45:34.736Z,1011.41
2023-04-18T04:45:59.650Z,1011.41
2023-04-18T04:46:31.360Z,1011.41
2023-04-18T04:47:03.359Z,1011.61
2023-04-18T04:47:36.399Z,1011.51
2023-04-18T04:48:07.493Z,1011.51
2023-04-18T04:48:34.433Z,1011.61
2023-04-18T04:48:55.382Z,1011.61
2023-04-18T04:49:28.551Z,1011.61
2023-04-18T04:49:59.345Z,1011.72
2023-04-18T04:50:33.272Z,1011.72
2023-04-18T04:51:03.396Z,1011.82
2023-04-18T04:51:35.013Z,1011.61
2023-04-18T04:52:07.373Z,1011.61
2023-04-18T04:52:34.906Z,1011.61
2023-04-18T04:52:55.394Z,1011.61
2023-04-18T04:53:27.335Z,1011.61
2023-04-18T04:54:01.418Z,1011.61
2023-04-18T04:54:31.472Z,1011.61
2023-04-18T04:55:04.476Z,1011.61
2023-04-18T04:55:35.025Z,1011.61
2023-04-18T04:56:08.245Z,1011.61
2023-04-18T04:56:34.421Z,1011.72
2023-04-18T04:56:56.276Z,1011.72
2023-04-18T04:57:27.420Z,1011.72
2023-04-18T04:57:59.334Z,1011.82
2023-04-18T04:58:31.448Z,1011.82
2023-04-18T04:59:03.268Z,1011.61
2023-04-18T04:59:34.640Z,1011.51
2023-04-18T05:00:07.352Z,1011.51
2023-04-18T05:00:34.421Z,1011.51
2023-04-18T05:00:55.560Z,1011.51
2023-04-18T05:01:34.942Z,1011.61
2023-04-18T05:01:59.520Z,1011.61
2023-04-18T05:02:31.660Z,1011.61
2023-04-18T05:03:03.581Z,1011.82
2023-04-18T05:03:34.797Z,1011.61
2023-04-18T05:03:53.164Z,1011.61
2023-04-18T05:04:23.527Z,1011.61
2023-04-18T05:04:40.752Z,1011.61
2023-04-18T05:05:11.447Z,1011.61
2023-04-18T05:05:34.495Z,1011.61
2023-04-18T05:06:00.192Z,1011.61
2023-04-18T05:06:31.446Z,1011.61
2023-04-18T05:07:04.322Z,1011.82
2023-04-18T05:07:34.493Z,1011.61
2023-04-18T05:07:51.520Z,1011.61
2023-04-18T05:08:23.473Z,1011.61
2023-04-18T05:08:40.609Z,1011.82
2023-04-18T05:09:12.322Z,1011.82
2023-04-18T05:09:34.480Z,1011.82
2023-04-18T05:09:59.534Z,1011.82
2023-04-18T05:10:31.513Z,1011.82
2023-04-18T05:11:03.491Z,1011.82
2023-04-18T05:11:34.470Z,1011.92
2023-04-18T05:11:51.329Z,1011.92
2023-04-18T05:12:24.247Z,1011.92
2023-04-18T05:12:41.505Z,1011.72
2023-04-18T05:13:11.576Z,1011.72
2023-04-18T05:13:34.428Z,1012.02
2023-04-18T05:13:59.281Z,1012.02
2023-04-18T05:14:32.160Z,1012.02
2023-04-18T05:15:04.690Z,1011.72
2023-04-18T05:15:35.170Z,1011.82
2023-04-18T05:16:07.307Z,1011.82
2023-04-18T05:16:34.774Z,1011.61
2023-04-18T05:16:55.542Z,1011.61
2023-04-18T05:17:27.452Z,1011.61
2023-04-18T05:18:00.261Z,1011.82
2023-04-18T05:18:34.372Z,1011.82
2023-04-18T05:19:04.358Z,1011.82
2023-04-18T05:19:34.829Z,1011.92
2023-04-18T05:19:51.398Z,1011.92
2023-04-18T05:20:23.398Z,1011.92
2023-04-18T05:20:40.714Z,1011.82
2023-04-18T05:21:13.443Z,1011.82
2023-04-18T05:21:34.551Z,1011.82
2023-04-18T05:21:59.355Z,1011.82
2023-04-18T05:22:31.434Z,1011.82
2023-04-18T05:23:03.349Z,1011.92
2023-04-18T05:23:34.548Z,1011.92
2023-04-18T05:24:07.347Z,1011.92
2023-04-18T05:24:34.194Z,1011.92
2023-04-18T05:24:55.318Z,1011.92
2023-04-18T05:25:28.338Z,1011.92
2023-04-18T05:25:59.362Z,1011.92
2023-04-18T05:26:32.143Z,1011.92
2023-04-18T05:27:03.352Z,1012.22
2023-04-18T05:27:35.672Z,1012.02
2023-04-18T05:28:07.363Z,1012.02
2023-04-18T05:28:34.987Z,1011.92
2023-04-18T05:28:55.329Z,1011.92
2023-04-18T05:29:27.305Z,1011.92
2023-04-18T05:30:00.698Z,1012.02
2023-04-18T05:30:31.437Z,1012.02
2023-04-18T05:31:04.414Z,1012.02
2023-04-18T05:31:34.606Z,1012.02
2023-04-18T05:32:08.026Z,1012.02
2023-04-18T05:32:34.402Z,1012.02
2023-04-18T05:32:55.377Z,1012.02
2023-04-18T05:33:28.349Z,1012.02
2023-04-18T05:33:59.357Z,1012.22
2023-04-18T05:34:31.335Z,1012.22
2023-04-18T05:35:03.558Z,1012.02
2023-04-18T05:35:34.483Z,1012.12
2023-04-18T05:35:51.353Z,1012.12
2023-04-18T05:36:24.165Z,1012.12
2023-04-18T05:36:41.378Z,1012.12
2023-04-18T05:37:19.536Z,1012.12
2023-04-18T05:37:28.012Z,1012.12
2023-04-18T05:37:59.291Z,1011.92
2023-04-18T05:38:32.732Z,1011.92
2023-04-18T05:39:03.282Z,1012.22
2023-04-18T05:39:35.514Z,1012.22